Terminal Aerodrome Forecast
Issued by NWS Burlington, VT

Home | Current Version | Previous Version | Text Only | Print | Product List | Glossary On
Versions: 1 2 3 4 5 6 7 8 9 10 11 12 13 14 15 16 17 18
767
FTUS41 KBTV 211120
TAFBTV
TAF
KBTV 211120Z 2112/2212 17004KT 2SM -DZ BR OVC008
      TEMPO 2114/2116 6SM BR OVC010
     FM211800 19004KT P6SM OVC015
     FM212300 00000KT 6SM BR OVC010=

USA.gov is the U.S. government's official web portal to all federal, state and local government web resources and services.